x

East Gulf - 208 Mn West Of Naples, Fl (42003) Wave Buoy

12:50am - Sun 4th Dec 2016 All times are EST. -5 hours from GMT.

  • Sig Wave height 5.2ft
  • Swell Direction
  • Peak Period 7s
  • Average Period 5s
  • Wind
    18mph, 20mph gusts
  • Sea Temp 77°f
  • Air Temp 77°f
  • Sea Pressure 1015.7mb
  • East Gulf - 208 Mn West Of Naples, Fl
  • East Gulf - 208 Mn West Of Naples, Fl

More Historic Weather Station data

Upgrade to MSW Pro to gain access to the past 30 days of data for over 8000 Wavebouys and Weather Stations around the globe.

Join Pro

Comparision Forecast

View Surf forecast
   
Sun 12/04 12:50am 5ft 7s 5s 18 20 mph 1015.7mb 77f 77f
Sat 12/03 11:50pm 5.5ft 6s 5s 18 22 mph 1016.2mb 77f 76f
10:50pm 5.5ft 7s 5s 20 25 mph 1016.6mb 77f 76f
9:50pm 6ft 7s 6s 18 22 mph 1017.1mb 77f 76f
8:50pm 5.5ft 7s 5s 18 20 mph 1017mb 77f 76f
7:50pm 6ft 7s 6s 18 22 mph 1016.5mb 77f 76f
6:50pm 7ft 7s 6s 18 20 mph 1016mb 77f 75f
5:50pm 6ft 7s 6s 18 22 mph 1015.6mb 77f 75f
4:50pm 6.5ft 7s 6s 18 22 mph 1015.5mb 77f 75f
3:50pm 6.5ft 7s 6s 20 25 mph 1015.3mb 77f 75f
2:50pm 6.5ft 7s 6s 18 22 mph 1015.8mb 76f 74f
1:50pm 6.5ft 7s 6s 18 22 mph 1016.3mb 76f 74f
12:50pm 6.5ft 7s 5s 20 25 mph 1017mb 77f 74f
11:50am 6.5ft 7s 6s 20 25 mph 1018.1mb 77f 74f
10:50am 6.5ft 7s 6s 20 25 mph 1018.8mb 77f 74f
9:50am 6.5ft 7s 5s 20 25 mph 1019mb 77f 74f
8:50am 6ft 7s  -  22 25 mph 1018.7mb 77f 74f
7:50am 6ft 6s 5s 20 25 mph 1018.5mb 77f 74f
6:50am 6ft 7s 5s 20 25 mph 1018.5mb 77f 74f
5:50am 6ft 7s 5s 22 27 mph 1017.7mb 77f 74f
4:50am 5.5ft 7s 5s 22 27 mph 1017.7mb 77f 75f
3:50am 6ft 7s 5s 22 25 mph 1017.9mb 77f 75f
2:50am 6.5ft 7s 5s 20 25 mph 1018.1mb 77f 75f
1:50am 6.5ft 7s 5s 22 25 mph 1018.1mb 77f 75f
12:50am 6ft 7s 5s 22 27 mph 1018.2mb 77f 75f
Fri 12/02 11:50pm 6ft 7s 5s 22 27 mph 1018.6mb 77f 74f
10:50pm 6ft 7s 5s 22 27 mph 1019.2mb 77f 74f
9:50pm 5ft 7s 5s 25 27 mph 1019.4mb 77f 73f
8:50pm 5ft 6s 5s 22 27 mph 1019.5mb 77f 73f
7:50pm 5ft 6s 5s 22 27 mph 1018.8mb 77f 73f
6:50pm 5ft 6s 5s 22 25 mph 1018.4mb 77f 73f
5:50pm 4.5ft 6s 5s 20 22 mph 1018mb 77f 73f
4:50pm 4.5ft 5s 5s 18 25 mph 1017.9mb 78f 73f
3:50pm 4.5ft 6s 5s 18 22 mph 1017.8mb 78f 73f
2:50pm 4ft 6s 4s 18 20 mph 1017.8mb 78f 73f
1:50pm 4ft 5s 5s 18 25 mph 1018.3mb 78f 73f
12:50pm 3.5ft 5s 4s 20 25 mph 1018.8mb 78f 73f
11:50am 3.5ft 6s 4s 18 22 mph 1019.8mb 78f 74f
10:50am 4ft 6s 5s 18 20 mph 1020.3mb 78f 74f
9:50am 3.5ft 6s 4s 16 20 mph 1020.5mb 78f 74f
8:50am 3.5ft 7s 5s 16 20 mph 1019.8mb 77f 74f
7:50am 4ft 7s 5s 16 18 mph 1019mb 77f 74f
6:50am 3.5ft 7s 5s 16 18 mph 1018.5mb 77f 73f
5:50am 4ft 7s 5s 16 18 mph 1018mb 77f 74f
4:50am 4ft 6s 5s 13 18 mph 1017.7mb 77f 74f
3:50am 4.5ft 7s 5s 16 18 mph 1017.4mb 77f 74f
2:50am 4.5ft 7s 5s 16 18 mph 1017.1mb 77f 74f
1:50am 4ft 6s 5s 16 18 mph 1017.3mb 77f 74f
12:50am 4ft 6s 5s 13 16 mph 1017.2mb 77f 74f
Thu 12/01 11:50pm 4.5ft 7s 5s 16 18 mph 1017.3mb 77f 74f
10:50pm 4.5ft 6s 5s 13 18 mph 1017.2mb 77f 74f
9:50pm 4.5ft 6s 5s 18 20 mph 1017mb 77f 74f
8:50pm 4.5ft 7s 5s 18 22 mph 1016.8mb 77f 74f
7:50pm 4.5ft 6s 5s 18 20 mph 1016.3mb 78f 74f
6:50pm 4.5ft 7s 5s 18 22 mph 1015.6mb 78f 75f
5:50pm 4.5ft 7s 5s 20 22 mph 1015.2mb 78f 75f
4:50pm 5ft 7s 5s 18 22 mph 1015.1mb 78f 75f
3:50pm 4.5ft 7s 5s 18 20 mph 1014.6mb 78f 75f
2:50pm 3.5ft 8s 5s 18 20 mph 1014.6mb 78f 76f
1:50pm 3ft 7s 4s 16 20 mph 1014.8mb 78f 76f
12:50pm 3ft 8s 5s 16 18 mph 1015.5mb 78f 76f
11:50am 3ft 7s 5s 2 4 mph 1016.2mb 78f 77f
10:50am 3ft 8s 5s 2 4 mph 1016.6mb 78f 78f
9:50am 3ft 7s 5s 4 16 mph 1016.6mb 78f 77f
8:50am 3ft 7s 5s 2 4 mph 1016.1mb 78f 77f
7:50am 3ft 7s 5s 2
mph
1015.4mb 77f 77f
6:50am 3.5ft 6s 5s 4
mph
1014.6mb 77f 77f
5:50am 3.5ft 8s 5s 2
mph
1014.1mb 77f 77f
4:50am 3.5ft 7s 5s 2 4 mph 1013.7mb 77f 78f
3:50am 3.5ft 8s 5s 9 11 mph 1013.8mb 77f 78f
2:50am 3.5ft 6s 5s 7
mph
1013.9mb 78f 78f
1:50am 4ft 8s 5s 4
mph
1014mb 78f 77f
12:50am 4.5ft 7s 6s 9 11 mph 1014mb 78f 78f
Wed 11/30 11:50pm 4.5ft 6s 5s 9
mph
1014.3mb 78f 78f
10:50pm 4.5ft 7s 5s 7 9 mph 1014.6mb 78f 78f
9:50pm 4.5ft 8s 6s 7 9 mph 1014.6mb 78f 78f
8:50pm 4.5ft 8s 6s 2 4 mph 1014.5mb 78f 77f
7:50pm 4.5ft 8s 6s 4 9 mph 1014.3mb 78f 76f
6:50pm 5ft 7s 6s 4 7 mph 1013.8mb 78f 78f
5:50pm 4.5ft 7s 6s 7
mph
1013.2mb 78f 78f
4:50pm 5ft 7s 6s 9 11 mph 1012.8mb 78f 79f
3:50pm 5ft 7s 6s 9 11 mph 1012.2mb 77f 79f
2:50pm 5ft 8s 5s 11 13 mph 1012.1mb 77f 79f
1:50pm 5.5ft 7s 6s 11 13 mph 1012.3mb 77f 79f
12:50pm 5ft 6s 5s 11 13 mph 1013mb 77f 79f
11:50am 4.5ft 6s 5s 11 13 mph 1013.4mb 77f 79f
10:50am 4.5ft 6s 5s 13 16 mph 1013.5mb 77f 79f
9:50am 4ft 6s 5s 16 18 mph 1013.2mb 77f 79f
8:50am 4.5ft 6s 5s 16 18 mph 1012.7mb 77f 78f
7:50am 4.5ft 6s 5s 13 16 mph 1012.3mb 77f 77f